Pagrindinis puslapis
METAR-TAF:

METAR-TAF

Oro uostai :

Doha, Kataras

platuma: 25-15-40N, ilguma: 051-33-54E, Aukštis: 11 m

Dabartinis oras

Ataskaita buvo paskelbta 29 minutes, ne 04:30 UTC
Vėjas 2 kt nuo kintamojo kryptimis
Temperatūra 37°C
Drėgmė 33%
Slėgis 1003 hPa
Matomumas 10 km arba daugiau
nėra debesų žemiau 1500 m ir nėra kamuolinių lietaus debesų

METAR: OTBD 290430Z AUTO VRB02KT CAVOK 37/18 Q1003 NOSIG

Laikas: 07:59 (04:59 UTC)

Prognozė

Ataskaita buvo paskelbta 5 valandos ir 49 minutes, ne 23:10 UTC
Prognozė galioja nuo 29 metu 00 UTC su 30 metu 06 UTC
Vėjas 7 kt iš Vakarų
Matomumas: 8000 m
Tikimybė 30% :
Laikinai
nuo 29 metu 00 UTC su 29 metu 04 UTC
Matomumas: 5000 m
migla
Tapsmas
nuo 29 metu 08 UTC su 29 metu 10 UTC
Vėjas 6 kt iš Rytų
Tapsmas
nuo 29 metu 18 UTC su 29 metu 20 UTC
Vėjas 2 kt nuo kintamojo kryptimis

TAF: OTBD 282310Z 2900/3006 28007KT 8000 NSC PROB30 TEMPO 2900/2904 5000 HZ BECMG 2908/2910 10006KT BECMG 2918/2920 VRB02KT

Orai ataskaitas ir orų prognozės (METAR, TAF).

turimą stotys yra geltonos ir raudonos taškus žemėlapyje.

Perkelti pele per norėdami pamatyti stoties vardą.

Tada spustelėkite, norėdami matyti oro stebėjimo ir prognozės.

Norėdami pakeisti žemėlapį: spustelėkite ant žalios mygtukų su juodo kryžiaus žemyn,; žalią mygtuką su brūkšneliu, jei norite nutolinti; arba žalių rodyklių gretimoms žemėlapius.


METAR-TAF: